sensor_id;sensor_type;location;lat;lon;timestamp;pressure;altitude;pressure_sealevel;temperature
69420;BMP280;71621;52.030;113.516;2023-11-19T00:01:53;93362.47;;;-2.66
69420;BMP280;71621;52.030;113.516;2023-11-19T00:04:56;93362.25;;;-2.61
69420;BMP280;71621;52.030;113.516;2023-11-19T00:08:00;93370.09;;;-2.51
69420;BMP280;71621;52.030;113.516;2023-11-19T00:11:05;93384.00;;;-2.48
69420;BMP280;71621;52.030;113.516;2023-11-19T00:14:09;93375.72;;;-2.54
69420;BMP280;71621;52.030;113.516;2023-11-19T00:17:12;93367.59;;;-2.59
69420;BMP280;71621;52.030;113.516;2023-11-19T00:20:18;93364.53;;;-2.65
69420;BMP280;71621;52.030;113.516;2023-11-19T00:23:22;93367.31;;;-2.63
69420;BMP280;71621;52.030;113.516;2023-11-19T00:26:26;93360.31;;;-2.60
69420;BMP280;71621;52.030;113.516;2023-11-19T00:29:31;93366.50;;;-2.55
69420;BMP280;71621;52.030;113.516;2023-11-19T00:32:34;93362.50;;;-2.57
69420;BMP280;71621;52.030;113.516;2023-11-19T00:35:40;93362.66;;;-2.54
69420;BMP280;71621;52.030;113.516;2023-11-19T00:38:43;93359.22;;;-2.57
69420;BMP280;71621;52.030;113.516;2023-11-19T00:41:47;93363.16;;;-2.66
69420;BMP280;71621;52.030;113.516;2023-11-19T00:44:51;93355.16;;;-2.77
69420;BMP280;71621;52.030;113.516;2023-11-19T00:47:54;93364.22;;;-2.88
69420;BMP280;71621;52.030;113.516;2023-11-19T00:50:58;93373.78;;;-3.00
69420;BMP280;71621;52.030;113.516;2023-11-19T00:54:02;93365.22;;;-3.10
69420;BMP280;71621;52.030;113.516;2023-11-19T00:57:06;93359.41;;;-3.19
69420;BMP280;71621;52.030;113.516;2023-11-19T01:00:10;93367.88;;;-3.28
69420;BMP280;71621;52.030;113.516;2023-11-19T01:03:22;93358.22;;;-3.35
69420;BMP280;71621;52.030;113.516;2023-11-19T01:06:28;93369.75;;;-3.38
69420;BMP280;71621;52.030;113.516;2023-11-19T01:09:34;93365.22;;;-3.37
69420;BMP280;71621;52.030;113.516;2023-11-19T01:12:38;93366.41;;;-3.48
69420;BMP280;71621;52.030;113.516;2023-11-19T01:15:42;93362.09;;;-3.53
69420;BMP280;71621;52.030;113.516;2023-11-19T01:18:49;93358.63;;;-3.56
69420;BMP280;71621;52.030;113.516;2023-11-19T01:21:57;93367.09;;;-3.48
69420;BMP280;71621;52.030;113.516;2023-11-19T01:25:00;93362.88;;;-3.43
69420;BMP280;71621;52.030;113.516;2023-11-19T01:28:04;93358.22;;;-3.35
69420;BMP280;71621;52.030;113.516;2023-11-19T01:31:07;93346.44;;;-3.26
69420;BMP280;71621;52.030;113.516;2023-11-19T01:34:11;93349.25;;;-3.15
69420;BMP280;71621;52.030;113.516;2023-11-19T01:37:15;93357.81;;;-3.04
69420;BMP280;71621;52.030;113.516;2023-11-19T01:40:22;93354.53;;;-2.95
69420;BMP280;71621;52.030;113.516;2023-11-19T01:46:37;93349.25;;;-2.78
69420;BMP280;71621;52.030;113.516;2023-11-19T01:49:42;93348.28;;;-2.73
69420;BMP280;71621;52.030;113.516;2023-11-19T01:52:46;93346.63;;;-2.68
69420;BMP280;71621;52.030;113.516;2023-11-19T01:55:49;93338.78;;;-2.68
69420;BMP280;71621;52.030;113.516;2023-11-19T01:58:54;93337.56;;;-2.67
69420;BMP280;71621;52.030;113.516;2023-11-19T02:01:59;93328.47;;;-2.66
69420;BMP280;71621;52.030;113.516;2023-11-19T02:05:03;93337.88;;;-2.53
69420;BMP280;71621;52.030;113.516;2023-11-19T02:08:07;93336.63;;;-2.43
69420;BMP280;71621;52.030;113.516;2023-11-19T02:11:11;93330.03;;;-2.34
69420;BMP280;71621;52.030;113.516;2023-11-19T02:14:15;93326.19;;;-2.23
69420;BMP280;71621;52.030;113.516;2023-11-19T02:17:30;93317.66;;;-2.05
69420;BMP280;71621;52.030;113.516;2023-11-19T02:20:37;93313.66;;;-1.86
69420;BMP280;71621;52.030;113.516;2023-11-19T02:23:41;93302.16;;;-1.72
69420;BMP280;71621;52.030;113.516;2023-11-19T02:30:01;93315.84;;;-1.32
69420;BMP280;71621;52.030;113.516;2023-11-19T02:33:06;93325.44;;;-1.16
69420;BMP280;71621;52.030;113.516;2023-11-19T02:36:10;93324.41;;;-1.01
69420;BMP280;71621;52.030;113.516;2023-11-19T02:39:13;93318.31;;;-0.94
69420;BMP280;71621;52.030;113.516;2023-11-19T02:42:23;93315.25;;;-0.90
69420;BMP280;71621;52.030;113.516;2023-11-19T02:45:27;93317.56;;;-0.84
69420;BMP280;71621;52.030;113.516;2023-11-19T02:48:35;93303.34;;;-0.81
69420;BMP280;71621;52.030;113.516;2023-11-19T02:51:39;93308.94;;;-0.75
69420;BMP280;71621;52.030;113.516;2023-11-19T02:54:43;93301.69;;;-0.65
69420;BMP280;71621;52.030;113.516;2023-11-19T02:57:46;93300.94;;;-0.56
69420;BMP280;71621;52.030;113.516;2023-11-19T03:00:54;93296.75;;;-0.49
69420;BMP280;71621;52.030;113.516;2023-11-19T03:04:00;93289.81;;;-0.45
69420;BMP280;71621;52.030;113.516;2023-11-19T03:07:07;93283.81;;;-0.36
69420;BMP280;71621;52.030;113.516;2023-11-19T03:10:10;93279.88;;;-0.25
69420;BMP280;71621;52.030;113.516;2023-11-19T03:13:18;93275.91;;;-0.14
69420;BMP280;71621;52.030;113.516;2023-11-19T03:16:21;93270.19;;;-0.11
69420;BMP280;71621;52.030;113.516;2023-11-19T03:19:25;93264.06;;;-0.04
69420;BMP280;71621;52.030;113.516;2023-11-19T03:22:29;93266.47;;;0.04
69420;BMP280;71621;52.030;113.516;2023-11-19T03:25:33;93260.44;;;0.13
69420;BMP280;71621;52.030;113.516;2023-11-19T03:28:37;93249.47;;;0.17
69420;BMP280;71621;52.030;113.516;2023-11-19T03:31:44;93251.88;;;0.24
69420;BMP280;71621;52.030;113.516;2023-11-19T03:34:50;93250.63;;;0.25
69420;BMP280;71621;52.030;113.516;2023-11-19T03:37:54;93248.38;;;0.32
69420;BMP280;71621;52.030;113.516;2023-11-19T03:40:58;93248.91;;;0.42
69420;BMP280;71621;52.030;113.516;2023-11-19T03:44:02;93244.00;;;0.48
69420;BMP280;71621;52.030;113.516;2023-11-19T03:47:05;93234.41;;;0.52
69420;BMP280;71621;52.030;113.516;2023-11-19T03:50:10;93223.31;;;0.54
69420;BMP280;71621;52.030;113.516;2023-11-19T03:53:13;93218.16;;;0.56
69420;BMP280;71621;52.030;113.516;2023-11-19T03:56:18;93213.34;;;0.64
69420;BMP280;71621;52.030;113.516;2023-11-19T03:59:21;93209.78;;;0.71
69420;BMP280;71621;52.030;113.516;2023-11-19T04:02:25;93217.81;;;0.73
69420;BMP280;71621;52.030;113.516;2023-11-19T04:05:31;93219.25;;;0.88
69420;BMP280;71621;52.030;113.516;2023-11-19T04:08:35;93224.59;;;1.02
69420;BMP280;71621;52.030;113.516;2023-11-19T04:11:38;93213.25;;;1.11
69420;BMP280;71621;52.030;113.516;2023-11-19T04:14:43;93218.53;;;1.11
69420;BMP280;71621;52.030;113.516;2023-11-19T04:17:47;93205.47;;;1.13
69420;BMP280;71621;52.030;113.516;2023-11-19T04:20:50;93201.13;;;1.17
69420;BMP280;71621;52.030;113.516;2023-11-19T04:23:54;93194.69;;;1.21
69420;BMP280;71621;52.030;113.516;2023-11-19T04:26:58;93191.81;;;1.28
69420;BMP280;71621;52.030;113.516;2023-11-19T04:30:02;93186.28;;;1.36
69420;BMP280;71621;52.030;113.516;2023-11-19T04:33:06;93181.78;;;1.38
69420;BMP280;71621;52.030;113.516;2023-11-19T04:36:10;93175.94;;;1.40
69420;BMP280;71621;52.030;113.516;2023-11-19T04:39:14;93161.84;;;1.47
69420;BMP280;71621;52.030;113.516;2023-11-19T04:42:19;93151.50;;;1.51
69420;BMP280;71621;52.030;113.516;2023-11-19T04:45:22;93150.25;;;1.52
69420;BMP280;71621;52.030;113.516;2023-11-19T04:48:26;93151.91;;;1.59
69420;BMP280;71621;52.030;113.516;2023-11-19T04:51:44;93148.13;;;1.62
69420;BMP280;71621;52.030;113.516;2023-11-19T04:54:51;93142.38;;;1.66
69420;BMP280;71621;52.030;113.516;2023-11-19T04:57:55;93129.41;;;1.70
69420;BMP280;71621;52.030;113.516;2023-11-19T05:00:59;93117.13;;;1.74
69420;BMP280;71621;52.030;113.516;2023-11-19T05:04:03;93106.81;;;1.79
69420;BMP280;71621;52.030;113.516;2023-11-19T05:07:06;93106.22;;;1.80
69420;BMP280;71621;52.030;113.516;2023-11-19T05:10:10;93104.44;;;1.85
69420;BMP280;71621;52.030;113.516;2023-11-19T05:13:14;93102.78;;;1.91
69420;BMP280;71621;52.030;113.516;2023-11-19T05:16:18;93100.34;;;1.95
69420;BMP280;71621;52.030;113.516;2023-11-19T05:19:22;93097.91;;;1.99
69420;BMP280;71621;52.030;113.516;2023-11-19T05:22:25;93098.00;;;2.01
69420;BMP280;71621;52.030;113.516;2023-11-19T05:25:30;93083.47;;;2.00
69420;BMP280;71621;52.030;113.516;2023-11-19T05:28:34;93078.47;;;2.06
69420;BMP280;71621;52.030;113.516;2023-11-19T05:31:37;93063.44;;;2.23
69420;BMP280;71621;52.030;113.516;2023-11-19T05:34:45;93059.97;;;2.34
69420;BMP280;71621;52.030;113.516;2023-11-19T05:37:51;93063.28;;;2.48
69420;BMP280;71621;52.030;113.516;2023-11-19T05:40:55;93062.88;;;2.54
69420;BMP280;71621;52.030;113.516;2023-11-19T05:43:58;93054.56;;;2.59
69420;BMP280;71621;52.030;113.516;2023-11-19T05:47:02;93051.59;;;2.67
69420;BMP280;71621;52.030;113.516;2023-11-19T05:50:06;93032.88;;;2.77
69420;BMP280;71621;52.030;113.516;2023-11-19T05:53:10;93032.16;;;2.90
69420;BMP280;71621;52.030;113.516;2023-11-19T05:56:13;93038.22;;;3.08
69420;BMP280;71621;52.030;113.516;2023-11-19T05:59:19;93031.06;;;3.26
69420;BMP280;71621;52.030;113.516;2023-11-19T06:02:22;93015.81;;;3.41
69420;BMP280;71621;52.030;113.516;2023-11-19T06:05:25;93020.28;;;3.54
69420;BMP280;71621;52.030;113.516;2023-11-19T06:08:29;93015.28;;;3.60
69420;BMP280;71621;52.030;113.516;2023-11-19T06:11:34;93005.97;;;3.59
69420;BMP280;71621;52.030;113.516;2023-11-19T06:14:38;93004.38;;;3.52
69420;BMP280;71621;52.030;113.516;2023-11-19T06:17:43;92996.97;;;3.48
69420;BMP280;71621;52.030;113.516;2023-11-19T06:20:46;92992.22;;;3.45
69420;BMP280;71621;52.030;113.516;2023-11-19T06:23:50;92996.22;;;3.46
69420;BMP280;71621;52.030;113.516;2023-11-19T06:26:56;92977.41;;;3.38
69420;BMP280;71621;52.030;113.516;2023-11-19T06:30:00;92987.97;;;3.38
69420;BMP280;71621;52.030;113.516;2023-11-19T06:33:04;92977.91;;;3.34
69420;BMP280;71621;52.030;113.516;2023-11-19T06:36:10;92977.81;;;3.32
69420;BMP280;71621;52.030;113.516;2023-11-19T06:39:14;92974.50;;;3.32
69420;BMP280;71621;52.030;113.516;2023-11-19T06:42:18;92959.84;;;3.29
69420;BMP280;71621;52.030;113.516;2023-11-19T06:45:24;92959.16;;;3.28
69420;BMP280;71621;52.030;113.516;2023-11-19T06:48:27;92959.84;;;3.29
69420;BMP280;71621;52.030;113.516;2023-11-19T06:51:31;92951.00;;;3.22
69420;BMP280;71621;52.030;113.516;2023-11-19T06:54:34;92944.38;;;3.21
69420;BMP280;71621;52.030;113.516;2023-11-19T06:57:38;92949.06;;;3.22
69420;BMP280;71621;52.030;113.516;2023-11-19T07:00:42;92935.84;;;3.22
69420;BMP280;71621;52.030;113.516;2023-11-19T07:03:46;92945.06;;;3.21
69420;BMP280;71621;52.030;113.516;2023-11-19T07:06:50;92945.22;;;3.25
69420;BMP280;71621;52.030;113.516;2023-11-19T07:09:56;92937.22;;;3.23
69420;BMP280;71621;52.030;113.516;2023-11-19T07:13:00;92938.03;;;3.28
69420;BMP280;71621;52.030;113.516;2023-11-19T07:16:04;92936.00;;;3.26
69420;BMP280;71621;52.030;113.516;2023-11-19T07:19:07;92929.38;;;3.25
69420;BMP280;71621;52.030;113.516;2023-11-19T07:22:11;92927.31;;;3.24
69420;BMP280;71621;52.030;113.516;2023-11-19T07:25:14;92915.94;;;3.19
69420;BMP280;71621;52.030;113.516;2023-11-19T07:28:18;92915.16;;;3.17
69420;BMP280;71621;52.030;113.516;2023-11-19T07:31:21;92903.16;;;3.14
69420;BMP280;71621;52.030;113.516;2023-11-19T07:34:27;92895.16;;;3.12
69420;BMP280;71621;52.030;113.516;2023-11-19T07:37:30;92890.41;;;3.08
69420;BMP280;71621;52.030;113.516;2023-11-19T07:40:33;92881.03;;;3.05
69420;BMP280;71621;52.030;113.516;2023-11-19T07:43:37;92858.31;;;2.98
69420;BMP280;71621;52.030;113.516;2023-11-19T07:46:41;92858.09;;;2.92
69420;BMP280;71621;52.030;113.516;2023-11-19T07:49:45;92854.00;;;2.89
69420;BMP280;71621;52.030;113.516;2023-11-19T07:52:49;92861.75;;;2.85
69420;BMP280;71621;52.030;113.516;2023-11-19T07:55:52;92855.53;;;2.78
69420;BMP280;71621;52.030;113.516;2023-11-19T07:58:55;92854.16;;;2.77
69420;BMP280;71621;52.030;113.516;2023-11-19T08:01:59;92843.53;;;2.75
69420;BMP280;71621;52.030;113.516;2023-11-19T08:05:03;92845.50;;;2.75
69420;BMP280;71621;52.030;113.516;2023-11-19T08:08:07;92834.94;;;2.75
69420;BMP280;71621;52.030;113.516;2023-11-19T08:11:10;92832.22;;;2.73
69420;BMP280;71621;52.030;113.516;2023-11-19T08:14:14;92834.00;;;2.68
69420;BMP280;71621;52.030;113.516;2023-11-19T08:17:18;92831.22;;;2.64
69420;BMP280;71621;52.030;113.516;2023-11-19T08:20:21;92829.78;;;2.61
69420;BMP280;71621;52.030;113.516;2023-11-19T08:23:25;92824.84;;;2.53
69420;BMP280;71621;52.030;113.516;2023-11-19T08:26:28;92818.13;;;2.50
69420;BMP280;71621;52.030;113.516;2023-11-19T08:29:32;92807.31;;;2.44
69420;BMP280;71621;52.030;113.516;2023-11-19T08:32:35;92804.41;;;2.38
69420;BMP280;71621;52.030;113.516;2023-11-19T08:35:39;92793.63;;;2.32
69420;BMP280;71621;52.030;113.516;2023-11-19T08:38:43;92783.59;;;2.28
69420;BMP280;71621;52.030;113.516;2023-11-19T08:41:47;92782.91;;;2.28
69420;BMP280;71621;52.030;113.516;2023-11-19T08:44:51;92781.41;;;2.23
69420;BMP280;71621;52.030;113.516;2023-11-19T08:47:57;92778.75;;;2.23
69420;BMP280;71621;52.030;113.516;2023-11-19T08:51:01;92767.94;;;2.17
69420;BMP280;71621;52.030;113.516;2023-11-19T08:54:04;92763.97;;;2.16
69420;BMP280;71621;52.030;113.516;2023-11-19T08:57:08;92765.16;;;2.13
69420;BMP280;71621;52.030;113.516;2023-11-19T09:00:11;92749.19;;;2.09
69420;BMP280;71621;52.030;113.516;2023-11-19T09:03:17;92745.00;;;2.03
69420;BMP280;71621;52.030;113.516;2023-11-19T09:06:21;92743.63;;;2.02
69420;BMP280;71621;52.030;113.516;2023-11-19T09:09:25;92736.25;;;1.99
69420;BMP280;71621;52.030;113.516;2023-11-19T09:12:28;92725.53;;;1.95
69420;BMP280;71621;52.030;113.516;2023-11-19T09:15:32;92722.13;;;1.92
69420;BMP280;71621;52.030;113.516;2023-11-19T09:18:35;92725.34;;;1.91
69420;BMP280;71621;52.030;113.516;2023-11-19T09:21:39;92722.66;;;1.89
69420;BMP280;71621;52.030;113.516;2023-11-19T09:24:42;92726.63;;;1.90
69420;BMP280;71621;52.030;113.516;2023-11-19T09:27:47;92727.84;;;1.87
69420;BMP280;71621;52.030;113.516;2023-11-19T09:30:52;92726.38;;;1.84
69420;BMP280;71621;52.030;113.516;2023-11-19T09:33:55;92724.28;;;1.80
69420;BMP280;71621;52.030;113.516;2023-11-19T09:36:59;92710.34;;;1.78
69420;BMP280;71621;52.030;113.516;2023-11-19T09:40:03;92710.81;;;1.74
69420;BMP280;71621;52.030;113.516;2023-11-19T09:43:07;92698.34;;;1.74
69420;BMP280;71621;52.030;113.516;2023-11-19T09:46:13;92699.63;;;1.73
69420;BMP280;71621;52.030;113.516;2023-11-19T09:49:21;92696.31;;;1.73
69420;BMP280;71621;52.030;113.516;2023-11-19T09:52:31;92700.63;;;1.66
69420;BMP280;71621;52.030;113.516;2023-11-19T09:55:34;92692.72;;;1.66
69420;BMP280;71621;52.030;113.516;2023-11-19T09:58:38;92693.41;;;1.67
69420;BMP280;71621;52.030;113.516;2023-11-19T10:01:41;92691.34;;;1.65
69420;BMP280;71621;52.030;113.516;2023-11-19T10:04:46;92677.34;;;1.61
69420;BMP280;71621;52.030;113.516;2023-11-19T10:07:52;92673.97;;;1.58
69420;BMP280;71621;52.030;113.516;2023-11-19T10:10:56;92673.16;;;1.56
69420;BMP280;71621;52.030;113.516;2023-11-19T10:13:59;92658.66;;;1.55
69420;BMP280;71621;52.030;113.516;2023-11-19T10:17:04;92650.75;;;1.55
69420;BMP280;71621;52.030;113.516;2023-11-19T10:20:10;92644.22;;;1.56
69420;BMP280;71621;52.030;113.516;2023-11-19T10:23:14;92642.84;;;1.55
69420;BMP280;71621;52.030;113.516;2023-11-19T10:26:18;92622.03;;;1.45
69420;BMP280;71621;52.030;113.516;2023-11-19T10:29:23;92620.25;;;1.34
69420;BMP280;71621;52.030;113.516;2023-11-19T10:32:27;92619.94;;;1.26
69420;BMP280;71621;52.030;113.516;2023-11-19T10:35:31;92622.88;;;1.18
69420;BMP280;71621;52.030;113.516;2023-11-19T10:38:35;92610.41;;;1.19
69420;BMP280;71621;52.030;113.516;2023-11-19T10:41:38;92613.44;;;1.13
69420;BMP280;71621;52.030;113.516;2023-11-19T10:44:42;92608.88;;;1.13
69420;BMP280;71621;52.030;113.516;2023-11-19T10:47:46;92604.38;;;1.16
69420;BMP280;71621;52.030;113.516;2023-11-19T10:50:53;92600.47;;;1.17
69420;BMP280;71621;52.030;113.516;2023-11-19T10:54:04;92594.72;;;1.21
69420;BMP280;71621;52.030;113.516;2023-11-19T10:57:19;92592.59;;;1.17
69420;BMP280;71621;52.030;113.516;2023-11-19T11:00:24;92585.97;;;1.16
69420;BMP280;71621;52.030;113.516;2023-11-19T11:03:39;92584.34;;;1.09
69420;BMP280;71621;52.030;113.516;2023-11-19T11:06:43;92578.91;;;1.05
69420;BMP280;71621;52.030;113.516;2023-11-19T11:09:47;92574.22;;;1.03
69420;BMP280;71621;52.030;113.516;2023-11-19T11:12:56;92569.91;;;1.10
69420;BMP280;71621;52.030;113.516;2023-11-19T11:16:04;92564.41;;;1.20
69420;BMP280;71621;52.030;113.516;2023-11-19T11:19:11;92558.72;;;1.25
69420;BMP280;71621;52.030;113.516;2023-11-19T11:22:16;92550.84;;;1.25
69420;BMP280;71621;52.030;113.516;2023-11-19T11:29:32;92548.09;;;1.23
69420;BMP280;71621;52.030;113.516;2023-11-19T11:36:20;92561.19;;;1.21
69420;BMP280;71621;52.030;113.516;2023-11-19T11:39:24;92545.03;;;1.13
69420;BMP280;71621;52.030;113.516;2023-11-19T11:42:31;92538.25;;;1.08
69420;BMP280;71621;52.030;113.516;2023-11-19T11:45:39;92527.13;;;1.09
69420;BMP280;71621;52.030;113.516;2023-11-19T11:48:48;92522.63;;;1.12
69420;BMP280;71621;52.030;113.516;2023-11-19T11:51:58;92520.19;;;1.16
69420;BMP280;71621;52.030;113.516;2023-11-19T11:55:05;92507.44;;;1.10
69420;BMP280;71621;52.030;113.516;2023-11-19T11:58:11;92507.88;;;1.05
69420;BMP280;71621;52.030;113.516;2023-11-19T12:01:15;92494.81;;;1.07
69420;BMP280;71621;52.030;113.516;2023-11-19T12:04:26;92492.25;;;1.09
69420;BMP280;71621;52.030;113.516;2023-11-19T12:07:33;92483.25;;;1.14
69420;BMP280;71621;52.030;113.516;2023-11-19T12:10:45;92466.38;;;1.19
69420;BMP280;71621;52.030;113.516;2023-11-19T12:13:55;92457.28;;;1.22
69420;BMP280;71621;52.030;113.516;2023-11-19T12:20:36;92448.47;;;1.15
69420;BMP280;71621;52.030;113.516;2023-11-19T12:23:46;92434.72;;;1.17
69420;BMP280;71621;52.030;113.516;2023-11-19T12:26:52;92420.91;;;1.16
69420;BMP280;71621;52.030;113.516;2023-11-19T12:29:57;92413.75;;;1.19
69420;BMP280;71621;52.030;113.516;2023-11-19T12:33:08;92406.63;;;1.22
69420;BMP280;71621;52.030;113.516;2023-11-19T12:36:12;92401.94;;;1.20
69420;BMP280;71621;52.030;113.516;2023-11-19T12:39:16;92392.03;;;1.19
69420;BMP280;71621;52.030;113.516;2023-11-19T12:42:19;92392.09;;;1.21
69420;BMP280;71621;52.030;113.516;2023-11-19T12:45:23;92398.03;;;1.21
69420;BMP280;71621;52.030;113.516;2023-11-19T12:48:27;92387.53;;;1.21
69420;BMP280;71621;52.030;113.516;2023-11-19T12:51:31;92384.28;;;1.23
69420;BMP280;71621;52.030;113.516;2023-11-19T12:54:36;92395.59;;;1.25
69420;BMP280;71621;52.030;113.516;2023-11-19T12:57:41;92391.50;;;1.22
69420;BMP280;71621;52.030;113.516;2023-11-19T13:00:45;92369.03;;;1.19
69420;BMP280;71621;52.030;113.516;2023-11-19T13:03:49;92381.06;;;1.24
69420;BMP280;71621;52.030;113.516;2023-11-19T13:06:54;92385.56;;;1.22
69420;BMP280;71621;52.030;113.516;2023-11-19T13:10:02;92384.66;;;1.15
69420;BMP280;71621;52.030;113.516;2023-11-19T13:13:07;92384.41;;;1.09
69420;BMP280;71621;52.030;113.516;2023-11-19T13:16:15;92361.75;;;1.02
69420;BMP280;71621;52.030;113.516;2023-11-19T13:19:21;92358.72;;;0.92
69420;BMP280;71621;52.030;113.516;2023-11-19T13:22:27;92359.66;;;0.82
69420;BMP280;71621;52.030;113.516;2023-11-19T13:25:31;92355.00;;;0.81
69420;BMP280;71621;52.030;113.516;2023-11-19T13:28:35;92334.22;;;0.71
69420;BMP280;71621;52.030;113.516;2023-11-19T13:31:39;92323.47;;;0.65
69420;BMP280;71621;52.030;113.516;2023-11-19T13:34:42;92319.41;;;0.62
69420;BMP280;71621;52.030;113.516;2023-11-19T13:37:46;92312.63;;;0.57
69420;BMP280;71621;52.030;113.516;2023-11-19T13:40:50;92311.97;;;0.56
69420;BMP280;71621;52.030;113.516;2023-11-19T13:43:54;92302.72;;;0.55
69420;BMP280;71621;52.030;113.516;2023-11-19T13:46:58;92300.00;;;0.53
69420;BMP280;71621;52.030;113.516;2023-11-19T13:50:01;92286.88;;;0.53
69420;BMP280;71621;52.030;113.516;2023-11-19T13:53:09;92282.78;;;0.50
69420;BMP280;71621;52.030;113.516;2023-11-19T13:56:12;92277.97;;;0.45
69420;BMP280;71621;52.030;113.516;2023-11-19T13:59:16;92278.31;;;0.37
69420;BMP280;71621;52.030;113.516;2023-11-19T14:02:19;92262.75;;;0.25
69420;BMP280;71621;52.030;113.516;2023-11-19T14:05:23;92257.69;;;0.14
69420;BMP280;71621;52.030;113.516;2023-11-19T14:08:30;92251.50;;;0.07
69420;BMP280;71621;52.030;113.516;2023-11-19T14:11:33;92242.78;;;0.03
69420;BMP280;71621;52.030;113.516;2023-11-19T14:14:37;92237.94;;;-0.03
69420;BMP280;71621;52.030;113.516;2023-11-19T14:17:42;92244.78;;;-0.12
69420;BMP280;71621;52.030;113.516;2023-11-19T14:20:46;92243.69;;;-0.22
69420;BMP280;71621;52.030;113.516;2023-11-19T14:23:50;92246.06;;;-0.28
69420;BMP280;71621;52.030;113.516;2023-11-19T14:26:53;92230.91;;;-0.30
69420;BMP280;71621;52.030;113.516;2023-11-19T14:29:56;92222.59;;;-0.24
69420;BMP280;71621;52.030;113.516;2023-11-19T14:33:00;92226.78;;;-0.19
69420;BMP280;71621;52.030;113.516;2023-11-19T14:36:04;92227.34;;;-0.21
69420;BMP280;71621;52.030;113.516;2023-11-19T14:39:09;92226.50;;;-0.25
69420;BMP280;71621;52.030;113.516;2023-11-19T14:42:15;92219.53;;;-0.35
69420;BMP280;71621;52.030;113.516;2023-11-19T14:45:18;92213.75;;;-0.47
69420;BMP280;71621;52.030;113.516;2023-11-19T14:48:22;92229.81;;;-0.54
69420;BMP280;71621;52.030;113.516;2023-11-19T14:51:26;92210.53;;;-0.61
69420;BMP280;71621;52.030;113.516;2023-11-19T14:54:30;92222.59;;;-0.70
69420;BMP280;71621;52.030;113.516;2023-11-19T14:57:34;92214.78;;;-0.83
69420;BMP280;71621;52.030;113.516;2023-11-19T15:00:39;92215.69;;;-0.93
69420;BMP280;71621;52.030;113.516;2023-11-19T15:03:43;92220.75;;;-0.97
69420;BMP280;71621;52.030;113.516;2023-11-19T15:06:50;92208.75;;;-1.02
69420;BMP280;71621;52.030;113.516;2023-11-19T15:09:54;92200.09;;;-1.04
69420;BMP280;71621;52.030;113.516;2023-11-19T15:12:58;92212.34;;;-1.09
69420;BMP280;71621;52.030;113.516;2023-11-19T15:16:01;92202.66;;;-1.20
69420;BMP280;71621;52.030;113.516;2023-11-19T15:19:05;92199.97;;;-1.22
69420;BMP280;71621;52.030;113.516;2023-11-19T15:22:08;92175.91;;;-1.32
69420;BMP280;71621;52.030;113.516;2023-11-19T15:25:14;92158.03;;;-1.36
69420;BMP280;71621;52.030;113.516;2023-11-19T15:28:18;92165.03;;;-1.40
69420;BMP280;71621;52.030;113.516;2023-11-19T15:31:22;92153.78;;;-1.43
69420;BMP280;71621;52.030;113.516;2023-11-19T15:34:26;92150.13;;;-1.52
69420;BMP280;71621;52.030;113.516;2023-11-19T15:37:29;92151.88;;;-1.56
69420;BMP280;71621;52.030;113.516;2023-11-19T15:40:33;92164.09;;;-1.61
69420;BMP280;71621;52.030;113.516;2023-11-19T15:43:37;92166.53;;;-1.65
69420;BMP280;71621;52.030;113.516;2023-11-19T15:46:41;92165.06;;;-1.68
69420;BMP280;71621;52.030;113.516;2023-11-19T15:49:45;92162.38;;;-1.70
69420;BMP280;71621;52.030;113.516;2023-11-19T15:52:48;92155.50;;;-1.77
69420;BMP280;71621;52.030;113.516;2023-11-19T15:55:52;92157.34;;;-1.80
69420;BMP280;71621;52.030;113.516;2023-11-19T15:58:55;92157.75;;;-1.85
69420;BMP280;71621;52.030;113.516;2023-11-19T16:01:59;92145.69;;;-1.90
69420;BMP280;71621;52.030;113.516;2023-11-19T16:05:03;92148.13;;;-1.94
69420;BMP280;71621;52.030;113.516;2023-11-19T16:08:08;92151.25;;;-1.98
69420;BMP280;71621;52.030;113.516;2023-11-19T16:11:13;92149.47;;;-1.93
69420;BMP280;71621;52.030;113.516;2023-11-19T16:14:17;92140.06;;;-1.98
69420;BMP280;71621;52.030;113.516;2023-11-19T16:17:21;92137.56;;;-2.10
69420;BMP280;71621;52.030;113.516;2023-11-19T16:20:25;92134.75;;;-2.14
69420;BMP280;71621;52.030;113.516;2023-11-19T16:23:28;92133.19;;;-2.19
69420;BMP280;71621;52.030;113.516;2023-11-19T16:26:32;92123.03;;;-2.27
69420;BMP280;71621;52.030;113.516;2023-11-19T16:29:35;92121.84;;;-2.38
69420;BMP280;71621;52.030;113.516;2023-11-19T16:32:53;92121.75;;;-2.40
69420;BMP280;71621;52.030;113.516;2023-11-19T16:35:56;92115.72;;;-2.56
69420;BMP280;71621;52.030;113.516;2023-11-19T16:39:00;92125.19;;;-2.63
69420;BMP280;71621;52.030;113.516;2023-11-19T16:42:06;92130.88;;;-2.66
69420;BMP280;71621;52.030;113.516;2023-11-19T16:45:11;92120.13;;;-2.72
69420;BMP280;71621;52.030;113.516;2023-11-19T16:48:14;92110.81;;;-2.75
69420;BMP280;71621;52.030;113.516;2023-11-19T16:51:18;92092.44;;;-2.77
69420;BMP280;71621;52.030;113.516;2023-11-19T16:54:22;92105.00;;;-2.74
69420;BMP280;71621;52.030;113.516;2023-11-19T16:57:25;92105.09;;;-2.72
69420;BMP280;71621;52.030;113.516;2023-11-19T17:00:30;92106.09;;;-2.79
69420;BMP280;71621;52.030;113.516;2023-11-19T17:03:34;92112.25;;;-2.86
69420;BMP280;71621;52.030;113.516;2023-11-19T17:06:40;92113.50;;;-2.87
69420;BMP280;71621;52.030;113.516;2023-11-19T17:09:44;92106.16;;;-2.91
69420;BMP280;71621;52.030;113.516;2023-11-19T17:12:47;92101.94;;;-2.96
69420;BMP280;71621;52.030;113.516;2023-11-19T17:15:51;92097.97;;;-2.97
69420;BMP280;71621;52.030;113.516;2023-11-19T17:18:54;92095.94;;;-2.98
69420;BMP280;71621;52.030;113.516;2023-11-19T17:21:58;92103.78;;;-2.98
69420;BMP280;71621;52.030;113.516;2023-11-19T17:25:02;92105.03;;;-2.99
69420;BMP280;71621;52.030;113.516;2023-11-19T17:28:07;92111.97;;;-3.04
69420;BMP280;71621;52.030;113.516;2023-11-19T17:31:12;92106.88;;;-3.02
69420;BMP280;71621;52.030;113.516;2023-11-19T17:34:17;92101.94;;;-2.96
69420;BMP280;71621;52.030;113.516;2023-11-19T17:37:21;92097.97;;;-2.97
69420;BMP280;71621;52.030;113.516;2023-11-19T17:40:25;92099.59;;;-3.03